Main page
METAR-TAF:

METAR-TAF

Airports :

Koksijde, Belgium

Koksijde Air Base

latitude: 51-05N, longitude: 002-39E, elevation: 4 m

Current weather observation

The report was made 30 minutes ago, at 18:25 UTC
Wind 7 kt from the Northeast
Temperature 9°C
Humidity 81%
Pressure 1023 hPa
Visibility 10 km or more
Few clouds at a height of 16000 ft
Broken clouds at a height of 25000 ft

METAR: EBFN 261825Z 04007KT 9999 FEW160 BKN250 09/06 Q1023 BLU

Time: 20:55 (18:55 UTC)

Forecast

The report was made 5 hours and 40 minutes ago, at 13:15 UTC
Forecast valid from 26 at 19 UTC to 27 at 07 UTC
Wind 6 kt from the East
Visibility 10 km or more
Few clouds at a height of 17000 ft
Scattered clouds at a height of 25000 ft
Temporary
from 27 at 02 UTC to 27 at 07 UTC
Visibility: 5000 m
Clear sky
mist
Probability 40% :
Temporary
from 27 at 03 UTC to 27 at 07 UTC
Visibility: 4000 m
mist

TAF: EBFN 261315Z 2619/2707 09006KT 9999 FEW170 SCT250 TEMPO 2702/2707 5000 BR SKC PROB40 TEMPO 2703/2707 4000 BR

Weather observations and forecasts of more than 4000 airports (METAR and TAF reports).

The available stations are represented by yellow and red dots on the map.

Hover mouse over dot to see the name of the station.

Then click to see weather observations and forecasts.

To change the map : click on the green buttons with a black cross to zoom in, on the green button with a dash to zoom out, or on the green arrows for adjacent maps.


METAR-TAF: